createdAt,value
2018-05-03T00:00:06.271Z,11.81
2018-05-03T00:01:06.261Z,11.87
2018-05-03T00:02:06.311Z,11.81
2018-05-03T00:03:06.248Z,11.88
2018-05-03T00:04:06.248Z,11.86
2018-05-03T00:05:06.234Z,11.87
2018-05-03T00:06:06.227Z,11.91
2018-05-03T00:07:06.220Z,11.90
2018-05-03T00:08:06.216Z,11.90
2018-05-03T00:09:06.210Z,11.88
2018-05-03T00:10:06.194Z,11.87
2018-05-03T00:11:06.193Z,11.87
2018-05-03T00:12:06.182Z,11.83
2018-05-03T00:13:06.175Z,11.80
2018-05-03T00:14:06.169Z,11.69
2018-05-03T00:15:06.161Z,11.75
2018-05-03T00:16:06.162Z,11.78
2018-05-03T00:17:06.169Z,11.75
2018-05-03T00:18:06.140Z,11.73
2018-05-03T00:19:06.128Z,11.69
2018-05-03T00:20:06.159Z,11.69
2018-05-03T00:21:06.117Z,11.70
2018-05-03T00:22:06.123Z,11.66
2018-05-03T00:23:06.105Z,11.68
2018-05-03T00:24:06.093Z,11.63
2018-05-03T00:25:06.088Z,11.68
2018-05-03T00:26:06.097Z,11.70
2018-05-03T00:27:06.099Z,11.77
2018-05-03T00:28:06.094Z,11.72
2018-05-03T00:29:06.058Z,11.78
2018-05-03T00:30:06.052Z,11.70
2018-05-03T00:31:06.045Z,11.70
2018-05-03T00:32:06.033Z,11.77
2018-05-03T00:33:06.029Z,11.80
2018-05-03T00:34:06.022Z,11.73
2018-05-03T00:35:06.011Z,11.73
2018-05-03T00:36:06.007Z,11.70
2018-05-03T00:37:06.007Z,11.68
2018-05-03T00:38:05.988Z,11.68
2018-05-03T00:39:05.980Z,11.75
2018-05-03T00:40:05.979Z,11.73
2018-05-03T00:41:05.970Z,11.70
2018-05-03T00:42:05.957Z,11.75
2018-05-03T00:43:05.954Z,11.80
2018-05-03T00:44:05.946Z,11.86
2018-05-03T00:45:05.936Z,11.80
2018-05-03T00:46:05.927Z,11.83
2018-05-03T00:47:05.921Z,11.80
2018-05-03T00:48:05.919Z,11.83
2018-05-03T00:49:05.910Z,11.72
2018-05-03T00:50:05.904Z,11.75
2018-05-03T00:51:05.896Z,11.69
2018-05-03T00:52:05.889Z,11.75
2018-05-03T00:53:05.878Z,11.69
2018-05-03T00:54:05.870Z,11.70
2018-05-03T00:55:05.866Z,11.73
2018-05-03T00:56:05.856Z,11.70
2018-05-03T00:57:05.852Z,11.73
2018-05-03T00:58:05.843Z,11.75
2018-05-03T00:59:05.919Z,11.70
2018-05-03T01:00:05.826Z,11.72
2018-05-03T01:01:05.819Z,11.66
2018-05-03T01:02:05.813Z,11.72
2018-05-03T01:03:05.805Z,11.65
2018-05-03T01:04:05.794Z,11.59
2018-05-03T01:05:05.788Z,11.54
2018-05-03T01:06:05.780Z,11.62
2018-05-03T01:07:05.773Z,11.66
2018-05-03T01:08:05.774Z,11.57
2018-05-03T01:09:05.761Z,11.62
2018-05-03T01:10:05.752Z,11.59
2018-05-03T01:11:05.741Z,11.65
2018-05-03T01:12:05.735Z,11.63
2018-05-03T01:13:05.735Z,11.59
2018-05-03T01:14:05.720Z,11.59
2018-05-03T01:15:05.713Z,11.59
2018-05-03T01:16:05.709Z,11.55
2018-05-03T01:17:05.700Z,11.54
2018-05-03T01:18:05.690Z,11.52
2018-05-03T01:19:05.681Z,11.47
2018-05-03T01:20:05.678Z,11.47
2018-05-03T01:21:05.672Z,11.45
2018-05-03T01:22:05.662Z,11.36
2018-05-03T01:23:05.656Z,11.41
2018-05-03T01:24:05.648Z,11.44
2018-05-03T01:25:05.638Z,11.40
2018-05-03T01:26:05.634Z,11.36
2018-05-03T01:27:05.626Z,11.48
2018-05-03T01:28:05.618Z,11.45
2018-05-03T01:29:05.611Z,11.43
2018-05-03T01:30:05.600Z,11.37
2018-05-03T01:31:05.593Z,11.40
2018-05-03T01:32:05.586Z,11.43
2018-05-03T01:33:05.589Z,11.37
2018-05-03T01:34:05.569Z,11.40
2018-05-03T01:35:05.566Z,11.32
2018-05-03T01:36:05.562Z,11.27
2018-05-03T01:37:05.549Z,11.37
2018-05-03T01:38:05.545Z,11.29
2018-05-03T01:39:05.531Z,11.27
2018-05-03T01:40:05.526Z,11.26
2018-05-03T01:41:05.515Z,11.32
2018-05-03T01:42:05.514Z,11.25
2018-05-03T01:43:05.508Z,11.26
2018-05-03T01:44:05.495Z,11.19
2018-05-03T01:45:05.486Z,11.12
2018-05-03T01:46:05.476Z,11.22
2018-05-03T01:47:05.480Z,11.15
2018-05-03T01:48:05.468Z,11.15
2018-05-03T01:49:05.458Z,11.18
2018-05-03T01:50:05.451Z,11.12
2018-05-03T01:51:05.444Z,11.07
2018-05-03T01:52:05.433Z,11.12
2018-05-03T01:53:05.424Z,11.00
2018-05-03T01:54:05.424Z,10.96
2018-05-03T01:55:05.409Z,11.05
2018-05-03T01:56:05.462Z,11.12
2018-05-03T01:57:05.399Z,11.08
2018-05-03T01:58:05.397Z,11.14
2018-05-03T01:59:05.383Z,11.08
2018-05-03T02:00:05.370Z,11.07
2018-05-03T02:01:05.373Z,11.05
2018-05-03T02:02:05.360Z,11.05
2018-05-03T02:03:05.361Z,11.05
2018-05-03T02:04:05.345Z,11.11
2018-05-03T02:05:05.334Z,11.10
2018-05-03T02:06:05.327Z,11.04
2018-05-03T02:07:05.317Z,11.05
2018-05-03T02:08:05.312Z,10.97
2018-05-03T02:09:05.307Z,10.97
2018-05-03T02:10:05.299Z,10.94
2018-05-03T02:11:05.291Z,10.97
2018-05-03T02:12:05.284Z,10.90
2018-05-03T02:13:05.275Z,10.96
2018-05-03T02:14:05.264Z,10.97
2018-05-03T02:15:05.259Z,10.97
2018-05-03T02:16:05.254Z,10.86
2018-05-03T02:17:05.245Z,10.76
2018-05-03T02:18:05.236Z,10.81
2018-05-03T02:19:05.227Z,10.78
2018-05-03T02:20:05.248Z,10.81
2018-05-03T02:21:05.213Z,10.79
2018-05-03T02:22:05.205Z,10.81
2018-05-03T02:23:05.201Z,10.81
2018-05-03T02:24:05.195Z,10.81
2018-05-03T02:25:05.181Z,10.74
2018-05-03T02:26:05.173Z,10.79
2018-05-03T02:27:05.165Z,10.74
2018-05-03T02:28:05.162Z,10.79
2018-05-03T02:29:05.153Z,10.74
2018-05-03T02:30:05.150Z,10.78
2018-05-03T02:31:05.150Z,10.79
2018-05-03T02:32:05.127Z,10.79
2018-05-03T02:33:05.138Z,10.81
2018-05-03T02:34:05.110Z,10.84
2018-05-03T02:35:05.108Z,10.78
2018-05-03T02:36:05.100Z,10.69
2018-05-03T02:37:05.091Z,10.69
2018-05-03T02:38:05.083Z,10.72
2018-05-03T02:39:05.075Z,10.69
2018-05-03T02:40:05.069Z,10.79
2018-05-03T02:41:05.057Z,10.78
2018-05-03T02:42:05.061Z,10.81
2018-05-03T02:43:05.045Z,10.82
2018-05-03T02:44:05.037Z,10.84
2018-05-03T02:45:05.040Z,10.82
2018-05-03T02:46:05.024Z,10.82
2018-05-03T02:47:05.015Z,10.79
2018-05-03T02:48:05.010Z,10.84
2018-05-03T02:49:05.000Z,10.89
2018-05-03T02:50:04.989Z,10.78
2018-05-03T02:51:04.986Z,10.87
2018-05-03T02:52:04.974Z,10.84
2018-05-03T02:53:04.968Z,10.76
2018-05-03T02:54:04.978Z,10.82
2018-05-03T02:55:04.954Z,10.89
2018-05-03T02:56:04.945Z,10.84
2018-05-03T02:57:04.937Z,10.87
2018-05-03T02:58:04.930Z,10.96
2018-05-03T02:59:04.929Z,10.96
2018-05-03T03:00:04.919Z,10.93
2018-05-03T03:01:04.908Z,10.93
2018-05-03T03:02:04.901Z,10.92
2018-05-03T03:03:04.894Z,11.10
2018-05-03T03:04:04.881Z,11.11
2018-05-03T03:05:04.879Z,11.05
2018-05-03T03:06:04.881Z,11.05
2018-05-03T03:07:04.858Z,11.05
2018-05-03T03:08:04.850Z,11.07
2018-05-03T03:09:04.851Z,11.18
2018-05-03T03:10:04.845Z,11.08
2018-05-03T03:11:04.830Z,11.10
2018-05-03T03:12:04.824Z,11.12
2018-05-03T03:13:04.845Z,11.10
2018-05-03T03:14:04.808Z,11.11
2018-05-03T03:15:04.801Z,11.08
2018-05-03T03:16:04.795Z,11.12
2018-05-03T03:17:04.787Z,11.14
2018-05-03T03:18:04.784Z,11.11
2018-05-03T03:19:04.772Z,11.08
2018-05-03T03:20:04.761Z,11.22
2018-05-03T03:21:04.756Z,11.11
2018-05-03T03:22:04.759Z,11.12
2018-05-03T03:23:04.737Z,11.23
2018-05-03T03:24:04.735Z,11.15
2018-05-03T03:25:04.725Z,11.22
2018-05-03T03:26:04.717Z,11.25
2018-05-03T03:27:04.724Z,11.29
2018-05-03T03:28:04.701Z,11.27
2018-05-03T03:29:04.691Z,11.23
2018-05-03T03:30:04.689Z,11.29
2018-05-03T03:31:04.682Z,11.33
2018-05-03T03:32:04.673Z,11.36
2018-05-03T03:33:04.666Z,11.29
2018-05-03T03:34:04.654Z,11.36
2018-05-03T03:35:04.649Z,11.33
2018-05-03T03:36:04.641Z,11.35
2018-05-03T03:37:04.644Z,11.37
2018-05-03T03:38:04.630Z,11.37
2018-05-03T03:39:04.621Z,11.37
2018-05-03T03:40:04.614Z,11.44
2018-05-03T03:41:04.603Z,11.43
2018-05-03T03:42:04.596Z,11.37
2018-05-03T03:43:04.587Z,11.44
2018-05-03T03:44:04.582Z,11.35
2018-05-03T03:45:04.578Z,11.40
2018-05-03T03:46:04.571Z,11.43
2018-05-03T03:47:04.561Z,11.43
2018-05-03T03:48:04.549Z,11.37
2018-05-03T03:49:04.569Z,11.37
2018-05-03T03:50:04.536Z,11.36
2018-05-03T03:51:04.539Z,11.37
2018-05-03T03:52:04.526Z,11.32
2018-05-03T03:53:04.521Z,11.41
2018-05-03T03:54:04.509Z,11.36
2018-05-03T03:55:04.498Z,11.32
2018-05-03T03:56:04.491Z,11.30
2018-05-03T03:57:04.485Z,11.36
2018-05-03T03:58:04.484Z,11.27
2018-05-03T03:59:04.559Z,11.29
2018-05-03T04:00:04.463Z,11.29
2018-05-03T04:01:04.454Z,11.27
2018-05-03T04:02:04.448Z,11.27
2018-05-03T04:03:04.442Z,11.32
2018-05-03T04:04:04.430Z,11.33
2018-05-03T04:05:04.432Z,11.30
2018-05-03T04:06:04.422Z,11.36
2018-05-03T04:07:04.415Z,11.37
2018-05-03T04:08:04.413Z,11.37
2018-05-03T04:09:04.397Z,11.44
2018-05-03T04:10:04.389Z,11.37
2018-05-03T04:11:04.387Z,11.36
2018-05-03T04:12:04.374Z,11.40
2018-05-03T04:13:04.370Z,11.37
2018-05-03T04:14:04.369Z,11.37
2018-05-03T04:15:04.351Z,11.36
2018-05-03T04:16:04.347Z,11.33
2018-05-03T04:17:04.338Z,11.30
2018-05-03T04:18:04.343Z,11.33
2018-05-03T04:19:04.325Z,11.29
2018-05-03T04:20:04.316Z,11.35
2018-05-03T04:21:04.309Z,11.26
2018-05-03T04:22:04.336Z,11.23
2018-05-03T04:23:04.289Z,11.32
2018-05-03T04:24:04.281Z,11.14
2018-05-03T04:25:04.282Z,11.19
2018-05-03T04:26:04.273Z,11.08
2018-05-03T04:27:04.264Z,11.10
2018-05-03T04:28:04.256Z,11.10
2018-05-03T04:29:04.248Z,11.12
2018-05-03T04:30:04.239Z,11.11
2018-05-03T04:31:04.229Z,11.10
2018-05-03T04:32:04.227Z,11.05
2018-05-03T04:33:04.221Z,11.00
2018-05-03T04:34:04.212Z,10.97
2018-05-03T04:35:04.206Z,11.04
2018-05-03T04:36:04.195Z,11.02
2018-05-03T04:37:04.185Z,11.07
2018-05-03T04:38:04.191Z,11.02
2018-05-03T04:39:04.174Z,11.10
2018-05-03T04:40:04.167Z,11.04
2018-05-03T04:41:04.159Z,11.04
2018-05-03T04:42:04.152Z,11.05
2018-05-03T04:43:04.140Z,11.07
2018-05-03T04:44:04.136Z,11.04
2018-05-03T04:45:04.128Z,11.08
2018-05-03T04:46:04.127Z,11.07
2018-05-03T04:47:04.115Z,11.08
2018-05-03T04:48:04.105Z,11.10
2018-05-03T04:49:04.096Z,11.07
2018-05-03T04:50:04.086Z,11.04
2018-05-03T04:51:04.086Z,11.00
2018-05-03T04:52:04.071Z,10.93
2018-05-03T04:53:04.066Z,10.92
2018-05-03T04:54:04.122Z,10.97
2018-05-03T04:55:04.056Z,10.94
2018-05-03T04:56:04.041Z,10.96
2018-05-03T04:57:04.034Z,10.92
2018-05-03T04:58:04.028Z,10.92
2018-05-03T04:59:04.033Z,10.96
2018-05-03T05:00:04.017Z,10.96
2018-05-03T05:01:04.007Z,10.97
2018-05-03T05:02:04.003Z,10.94
2018-05-03T05:03:03.991Z,10.97
2018-05-03T05:04:03.980Z,10.97
2018-05-03T05:05:03.989Z,10.94
2018-05-03T05:06:03.974Z,10.90
2018-05-03T05:07:03.963Z,10.92
2018-05-03T05:08:03.950Z,10.93
2018-05-03T05:09:03.943Z,10.93
2018-05-03T05:10:03.940Z,11.02
2018-05-03T05:11:03.927Z,10.92
2018-05-03T05:12:03.923Z,11.02
2018-05-03T05:13:03.916Z,11.07
2018-05-03T05:14:03.914Z,10.92
2018-05-03T05:15:03.897Z,10.94
2018-05-03T05:16:03.895Z,10.99
2018-05-03T05:17:03.883Z,10.93
2018-05-03T05:18:03.875Z,11.11
2018-05-03T05:19:03.886Z,11.11
2018-05-03T05:20:03.864Z,11.11
2018-05-03T05:21:03.854Z,11.11
2018-05-03T05:22:03.850Z,11.00
2018-05-03T05:23:03.841Z,11.07
2018-05-03T05:24:03.833Z,11.11
2018-05-03T05:25:03.821Z,11.11
2018-05-03T05:26:03.813Z,11.14
2018-05-03T05:27:03.809Z,11.11
2018-05-03T05:28:03.800Z,11.15
2018-05-03T05:29:03.795Z,11.12
2018-05-03T05:30:03.786Z,11.08
2018-05-03T05:31:03.778Z,11.08
2018-05-03T05:32:03.772Z,11.14
2018-05-03T05:33:03.762Z,11.14
2018-05-03T05:34:03.758Z,11.25
2018-05-03T05:35:03.749Z,11.19
2018-05-03T05:36:03.742Z,11.29
2018-05-03T05:37:03.735Z,11.23
2018-05-03T05:38:03.727Z,11.29
2018-05-03T05:39:03.792Z,11.32
2018-05-03T05:40:03.713Z,11.33
2018-05-03T05:41:03.705Z,11.35
2018-05-03T05:42:03.694Z,11.43
2018-05-03T05:43:03.697Z,11.43
2018-05-03T05:44:03.687Z,11.43
2018-05-03T05:45:03.675Z,11.29
2018-05-03T05:46:03.667Z,11.33
2018-05-03T05:47:03.663Z,11.32
2018-05-03T05:48:03.652Z,11.43
2018-05-03T05:49:03.647Z,11.41
2018-05-03T05:50:03.640Z,11.45
2018-05-03T05:51:03.755Z,11.51
2018-05-03T05:52:03.628Z,11.48
2018-05-03T05:53:03.617Z,11.52
2018-05-03T05:54:03.615Z,11.68
2018-05-03T05:55:03.603Z,11.65
2018-05-03T05:56:03.597Z,11.70
2018-05-03T05:57:03.590Z,11.86
2018-05-03T05:58:03.583Z,11.94
2018-05-03T05:59:03.640Z,11.99
2018-05-03T06:00:03.566Z,11.87
2018-05-03T06:01:03.564Z,11.99
2018-05-03T06:02:03.572Z,12.04
2018-05-03T06:03:03.550Z,12.02
2018-05-03T06:04:03.542Z,12.15
2018-05-03T06:05:03.532Z,12.15
2018-05-03T06:06:03.528Z,12.24
2018-05-03T06:07:03.532Z,12.24
2018-05-03T06:08:03.524Z,12.18
2018-05-03T06:09:03.509Z,12.25
2018-05-03T06:10:03.509Z,12.24
2018-05-03T06:11:03.494Z,12.27
2018-05-03T06:12:03.487Z,12.27
2018-05-03T06:13:03.480Z,12.29
2018-05-03T06:14:03.478Z,12.22
2018-05-03T06:15:03.469Z,12.31
2018-05-03T06:16:03.486Z,12.31
2018-05-03T06:17:03.456Z,12.40
2018-05-03T06:18:03.446Z,12.54
2018-05-03T06:19:03.461Z,12.72
2018-05-03T06:20:03.437Z,12.68
2018-05-03T06:21:03.435Z,12.83
2018-05-03T06:22:03.429Z,12.98
2018-05-03T06:23:03.419Z,13.08
2018-05-03T06:24:03.414Z,13.09
2018-05-03T06:25:03.411Z,13.15
2018-05-03T06:26:03.460Z,13.22
2018-05-03T06:27:03.432Z,13.31
2018-05-03T06:28:03.393Z,13.27
2018-05-03T06:29:03.386Z,13.41
2018-05-03T06:30:03.383Z,13.57
2018-05-03T06:31:03.376Z,13.57
2018-05-03T06:32:03.372Z,13.65
2018-05-03T06:33:03.362Z,13.72
2018-05-03T06:34:03.359Z,13.70
2018-05-03T06:35:03.352Z,13.70
2018-05-03T06:36:03.348Z,13.70
2018-05-03T06:37:03.345Z,13.74
2018-05-03T06:38:03.337Z,13.79
2018-05-03T06:39:03.331Z,13.81
2018-05-03T06:40:03.330Z,13.87
2018-05-03T06:41:03.324Z,13.92
2018-05-03T06:42:03.316Z,13.96
2018-05-03T06:43:03.315Z,13.90
2018-05-03T06:44:03.309Z,13.93
2018-05-03T06:45:03.306Z,13.99
2018-05-03T06:46:03.295Z,13.99
2018-05-03T06:47:03.289Z,14.07
2018-05-03T06:48:03.291Z,14.18
2018-05-03T06:49:03.286Z,14.29
2018-05-03T06:50:03.281Z,14.32
2018-05-03T06:51:03.279Z,14.43
2018-05-03T06:52:03.266Z,14.48
2018-05-03T06:53:03.267Z,14.65
2018-05-03T06:54:03.266Z,14.79
2018-05-03T06:55:03.260Z,14.89
2018-05-03T06:56:03.253Z,15.04
2018-05-03T06:57:03.249Z,15.03
2018-05-03T06:58:03.250Z,15.15
2018-05-03T06:59:03.246Z,15.22
2018-05-03T07:00:03.238Z,15.18
2018-05-03T07:01:03.240Z,15.18
2018-05-03T07:02:03.230Z,15.37
2018-05-03T07:03:03.229Z,15.35
2018-05-03T07:04:03.309Z,15.33
2018-05-03T07:05:03.218Z,15.49
2018-05-03T07:06:03.214Z,15.52
2018-05-03T07:07:03.213Z,15.62
2018-05-03T07:08:03.206Z,15.80
2018-05-03T07:09:03.205Z,15.94
2018-05-03T07:10:03.299Z,16.08
2018-05-03T07:11:03.199Z,16.33
2018-05-03T07:12:03.195Z,16.57
2018-05-03T07:13:03.209Z,16.75
2018-05-03T07:14:03.188Z,16.97
2018-05-03T07:15:03.185Z,17.12
2018-05-03T07:16:03.181Z,17.19
2018-05-03T07:17:03.181Z,17.33
2018-05-03T07:18:03.175Z,17.30
2018-05-03T07:19:03.175Z,17.45
2018-05-03T07:20:03.171Z,17.56
2018-05-03T07:21:03.242Z,17.68
2018-05-03T07:22:03.168Z,17.80
2018-05-03T07:23:03.170Z,17.89
2018-05-03T07:24:03.164Z,18.03
2018-05-03T07:25:03.211Z,18.26
2018-05-03T07:26:03.169Z,18.31
2018-05-03T07:27:03.166Z,18.26
2018-05-03T07:28:03.162Z,18.31
2018-05-03T07:29:03.162Z,18.41
2018-05-03T07:30:03.168Z,18.52
2018-05-03T07:31:03.257Z,18.55
2018-05-03T07:32:03.169Z,18.66
2018-05-03T07:33:03.239Z,18.75
2018-05-03T07:34:03.287Z,18.80
2018-05-03T07:35:03.185Z,18.80
2018-05-03T07:36:03.210Z,18.90
2018-05-03T07:37:03.259Z,18.88
2018-05-03T07:38:03.168Z,18.96
2018-05-03T07:39:03.167Z,18.99
2018-05-03T07:40:03.214Z,18.92
2018-05-03T07:41:03.167Z,18.92
2018-05-03T07:42:03.190Z,18.86
2018-05-03T07:43:03.185Z,18.73
2018-05-03T07:44:03.173Z,18.78
2018-05-03T07:45:03.204Z,18.77
2018-05-03T07:46:03.177Z,18.88
2018-05-03T07:47:03.176Z,18.84
2018-05-03T07:48:03.174Z,18.68
2018-05-03T07:49:03.180Z,18.55
2018-05-03T07:50:03.179Z,18.58
2018-05-03T07:51:03.188Z,18.52
2018-05-03T07:52:03.185Z,18.52
2018-05-03T07:53:03.185Z,18.50
2018-05-03T07:54:03.192Z,18.58
2018-05-03T07:55:03.192Z,18.58
2018-05-03T07:56:03.186Z,18.73
2018-05-03T07:57:03.190Z,18.93
2018-05-03T07:58:03.195Z,18.96
2018-05-03T07:59:03.203Z,19.08
2018-05-03T08:00:03.199Z,19.16
2018-05-03T08:01:03.204Z,19.19
2018-05-03T08:02:03.266Z,19.18
2018-05-03T08:03:03.211Z,19.11
2018-05-03T08:04:03.205Z,19.00
2018-05-03T08:05:03.208Z,18.92
2018-05-03T08:06:03.209Z,18.81
2018-05-03T08:07:03.212Z,18.73
2018-05-03T08:08:03.213Z,18.68
2018-05-03T08:09:03.211Z,18.55
2018-05-03T08:10:03.328Z,18.55
2018-05-03T08:11:03.420Z,18.55
2018-05-03T08:12:03.371Z,18.52
2018-05-03T08:13:03.437Z,18.41
2018-05-03T08:14:03.302Z,18.52
2018-05-03T08:15:03.608Z,18.53
2018-05-03T08:16:03.332Z,18.63
2018-05-03T08:17:03.351Z,18.60
2018-05-03T08:18:03.334Z,18.56
2018-05-03T08:19:03.336Z,18.71
2018-05-03T08:20:03.328Z,18.83
2018-05-03T08:21:04.368Z,18.92
2018-05-03T08:22:03.237Z,19.12
2018-05-03T08:23:03.235Z,19.33
2018-05-03T08:24:03.248Z,19.45
2018-05-03T08:25:03.243Z,19.54
2018-05-03T08:26:03.245Z,19.59
2018-05-03T08:27:03.247Z,19.66
2018-05-03T08:28:03.253Z,19.62
2018-05-03T08:29:03.251Z,19.79
2018-05-03T08:30:03.252Z,19.88
2018-05-03T08:31:03.260Z,19.66
2018-05-03T08:32:03.255Z,19.82
2018-05-03T08:33:03.265Z,19.71
2018-05-03T08:34:03.262Z,19.71
2018-05-03T08:35:03.267Z,19.82
2018-05-03T08:36:03.270Z,19.85
2018-05-03T08:37:03.280Z,20.04
2018-05-03T08:38:03.297Z,20.00
2018-05-03T08:39:03.282Z,20.09
2018-05-03T08:40:03.287Z,20.26
2018-05-03T08:41:03.293Z,20.29
2018-05-03T08:42:03.316Z,20.34
2018-05-03T08:43:03.296Z,20.55
2018-05-03T08:44:03.300Z,20.48
2018-05-03T08:45:03.304Z,20.65
2018-05-03T08:46:03.307Z,20.74
2018-05-03T08:47:03.314Z,20.70
2018-05-03T08:48:03.317Z,20.81
2018-05-03T08:49:03.319Z,20.96
2018-05-03T08:50:03.332Z,21.09
2018-05-03T08:51:03.327Z,21.12
2018-05-03T08:52:03.335Z,21.22
2018-05-03T08:53:03.337Z,21.15
2018-05-03T08:54:03.342Z,21.15
2018-05-03T08:55:03.349Z,21.15
2018-05-03T08:56:03.350Z,21.42
2018-05-03T08:57:03.352Z,21.60
2018-05-03T08:58:03.360Z,21.88
2018-05-03T08:59:03.367Z,22.20
2018-05-03T09:00:03.372Z,22.44
2018-05-03T09:01:03.376Z,22.51
2018-05-03T09:02:03.383Z,22.62
2018-05-03T09:03:03.386Z,22.57
2018-05-03T09:04:03.389Z,22.50
2018-05-03T09:05:03.399Z,22.30
2018-05-03T09:06:03.406Z,21.93
2018-05-03T09:07:03.412Z,21.69
2018-05-03T09:08:03.417Z,21.33
2018-05-03T09:09:03.426Z,21.29
2018-05-03T09:10:03.429Z,21.30
2018-05-03T09:11:03.431Z,21.39
2018-05-03T09:12:03.441Z,21.57
2018-05-03T09:13:03.448Z,21.77
2018-05-03T09:14:03.454Z,21.89
2018-05-03T09:15:03.459Z,21.82
2018-05-03T09:16:03.459Z,21.88
2018-05-03T09:17:03.468Z,21.98
2018-05-03T09:18:03.515Z,21.92
2018-05-03T09:19:03.481Z,21.83
2018-05-03T09:20:03.487Z,21.73
2018-05-03T09:21:03.490Z,21.52
2018-05-03T09:22:03.499Z,21.17
2018-05-03T09:23:03.502Z,20.88
2018-05-03T09:24:03.506Z,20.74
2018-05-03T09:25:03.511Z,20.51
2018-05-03T09:26:03.518Z,20.63
2018-05-03T09:27:03.524Z,20.62
2018-05-03T09:28:03.529Z,20.67
2018-05-03T09:29:03.536Z,20.77
2018-05-03T09:30:03.540Z,21.21
2018-05-03T09:31:03.549Z,21.55
2018-05-03T09:32:03.557Z,21.70
2018-05-03T09:33:03.564Z,21.92
2018-05-03T09:34:03.564Z,22.11
2018-05-03T09:35:03.571Z,22.17
2018-05-03T09:36:03.578Z,21.83
2018-05-03T09:37:03.580Z,21.88
2018-05-03T09:38:03.587Z,22.13
2018-05-03T09:39:03.658Z,22.13
2018-05-03T09:40:03.599Z,22.13
2018-05-03T09:41:03.608Z,22.30
2018-05-03T09:42:03.613Z,22.59
2018-05-03T09:43:03.619Z,22.93
2018-05-03T09:44:03.696Z,23.06
2018-05-03T09:45:03.627Z,23.17
2018-05-03T09:46:03.638Z,23.43
2018-05-03T09:47:03.645Z,23.61
2018-05-03T09:48:03.652Z,23.59
2018-05-03T09:49:03.659Z,23.17
2018-05-03T09:50:03.664Z,22.98
2018-05-03T09:51:03.671Z,22.88
2018-05-03T09:52:03.676Z,22.93
2018-05-03T09:53:03.686Z,22.72
2018-05-03T09:54:03.691Z,22.66
2018-05-03T09:55:03.699Z,22.55
2018-05-03T09:56:03.704Z,22.23
2018-05-03T09:57:03.711Z,22.41
2018-05-03T09:58:03.717Z,22.33
2018-05-03T09:59:03.725Z,22.32
2018-05-03T10:00:03.724Z,22.32
2018-05-03T10:01:03.736Z,22.26
2018-05-03T10:02:03.743Z,22.41
2018-05-03T10:03:03.746Z,22.57
2018-05-03T10:04:03.753Z,22.70
2018-05-03T10:05:03.755Z,22.96
2018-05-03T10:06:03.762Z,23.10
2018-05-03T10:07:03.780Z,22.94
2018-05-03T10:08:03.787Z,22.73
2018-05-03T10:09:03.779Z,22.72
2018-05-03T10:10:03.784Z,22.65
2018-05-03T10:11:03.827Z,22.66
2018-05-03T10:12:03.795Z,22.65
2018-05-03T10:13:03.860Z,22.75
2018-05-03T10:14:03.808Z,22.81
2018-05-03T10:15:03.813Z,22.94
2018-05-03T10:16:03.821Z,23.08
2018-05-03T10:17:03.835Z,22.91
2018-05-03T10:18:03.834Z,22.73
2018-05-03T10:19:03.835Z,22.73
2018-05-03T10:20:03.845Z,22.70
2018-05-03T10:21:03.849Z,22.55
2018-05-03T10:22:03.940Z,22.25
2018-05-03T10:23:03.865Z,22.00
2018-05-03T10:24:03.869Z,21.60
2018-05-03T10:25:03.881Z,21.61
2018-05-03T10:26:03.885Z,21.42
2018-05-03T10:27:03.888Z,21.57
2018-05-03T10:28:03.894Z,21.93
2018-05-03T10:29:03.902Z,21.93
2018-05-03T10:30:03.993Z,21.95
2018-05-03T10:31:03.920Z,21.82
2018-05-03T10:32:03.920Z,21.88
2018-05-03T10:33:03.932Z,21.98
2018-05-03T10:34:03.935Z,22.30
2018-05-03T10:35:03.942Z,22.69
2018-05-03T10:36:03.964Z,22.94
2018-05-03T10:37:03.954Z,23.09
2018-05-03T10:38:03.960Z,23.25
2018-05-03T10:39:03.968Z,23.27
2018-05-03T10:40:03.972Z,23.24
2018-05-03T10:41:03.997Z,23.40
2018-05-03T10:42:04.119Z,23.37
2018-05-03T10:43:03.996Z,23.25
2018-05-03T10:44:04.006Z,23.31
2018-05-03T10:45:04.012Z,23.17
2018-05-03T10:46:04.014Z,22.80
2018-05-03T10:47:04.022Z,22.48
2018-05-03T10:48:04.027Z,22.59
2018-05-03T10:49:04.091Z,22.81
2018-05-03T10:50:04.041Z,23.20
2018-05-03T10:51:04.058Z,23.46
2018-05-03T10:52:04.052Z,23.96
2018-05-03T10:53:04.066Z,24.16
2018-05-03T10:54:04.074Z,23.91
2018-05-03T10:55:04.079Z,23.51
2018-05-03T10:56:04.091Z,23.32
2018-05-03T10:57:04.100Z,23.12
2018-05-03T10:58:04.103Z,22.81
2018-05-03T10:59:04.107Z,23.17
2018-05-03T11:00:04.116Z,23.59
2018-05-03T11:01:04.120Z,23.61
2018-05-03T11:02:04.133Z,23.77
2018-05-03T11:03:04.140Z,24.11
2018-05-03T11:04:04.150Z,24.08
2018-05-03T11:05:04.158Z,23.76
2018-05-03T11:06:04.162Z,23.77
2018-05-03T11:07:04.171Z,23.80
2018-05-03T11:08:04.177Z,23.93
2018-05-03T11:09:04.189Z,24.02
2018-05-03T11:10:04.197Z,23.41
2018-05-03T11:11:04.214Z,23.62
2018-05-03T11:12:04.212Z,23.63
2018-05-03T11:13:04.216Z,23.74
2018-05-03T11:14:04.223Z,23.54
2018-05-03T11:15:04.254Z,23.20
2018-05-03T11:16:04.241Z,22.85
2018-05-03T11:17:04.247Z,22.54
2018-05-03T11:18:04.255Z,22.39
2018-05-03T11:19:04.267Z,22.23
2018-05-03T11:20:04.266Z,22.08
2018-05-03T11:21:04.274Z,22.07
2018-05-03T11:22:04.282Z,21.96
2018-05-03T11:23:04.289Z,21.89
2018-05-03T11:24:04.294Z,21.70
2018-05-03T11:25:04.339Z,21.64
2018-05-03T11:26:04.390Z,21.29
2018-05-03T11:27:04.322Z,21.58
2018-05-03T11:28:04.326Z,21.70
2018-05-03T11:29:04.327Z,21.76
2018-05-03T11:30:04.336Z,21.67
2018-05-03T11:31:04.343Z,21.69
2018-05-03T11:32:04.348Z,22.06
2018-05-03T11:33:04.409Z,22.02
2018-05-03T11:34:04.369Z,22.00
2018-05-03T11:35:04.369Z,22.11
2018-05-03T11:36:04.372Z,22.25
2018-05-03T11:37:04.407Z,22.50
2018-05-03T11:38:04.383Z,22.65
2018-05-03T11:39:04.389Z,22.81
2018-05-03T11:40:04.404Z,22.94
2018-05-03T11:41:04.404Z,22.81
2018-05-03T11:42:04.410Z,22.96
2018-05-03T11:43:04.415Z,23.32
2018-05-03T11:44:04.426Z,23.36
2018-05-03T11:45:04.444Z,23.31
2018-05-03T11:46:04.431Z,23.36
2018-05-03T11:47:04.433Z,23.25
2018-05-03T11:48:04.439Z,23.23
2018-05-03T11:49:04.443Z,23.36
2018-05-03T11:50:04.452Z,22.76
2018-05-03T11:51:04.458Z,22.87
2018-05-03T11:52:04.464Z,23.15
2018-05-03T11:53:04.464Z,22.90
2018-05-03T11:54:04.471Z,22.96
2018-05-03T11:55:04.529Z,22.63
2018-05-03T11:56:04.486Z,22.51
2018-05-03T11:57:04.491Z,22.29
2018-05-03T11:58:04.496Z,22.17
2018-05-03T11:59:04.630Z,22.53
2018-05-03T12:00:04.509Z,22.26
2018-05-03T12:01:04.515Z,22.29
2018-05-03T12:02:04.521Z,22.30
2018-05-03T12:03:04.529Z,22.30
2018-05-03T12:04:04.533Z,22.53
2018-05-03T12:05:04.543Z,22.76
2018-05-03T12:06:05.610Z,22.91
2018-05-03T12:07:04.551Z,22.94
2018-05-03T12:08:04.556Z,23.21
2018-05-03T12:09:04.566Z,23.18
2018-05-03T12:10:04.575Z,23.34
2018-05-03T12:11:04.580Z,23.25
2018-05-03T12:12:04.588Z,23.15
2018-05-03T12:13:04.590Z,23.25
2018-05-03T12:14:04.601Z,23.23
2018-05-03T12:15:04.613Z,23.06
2018-05-03T12:16:04.610Z,22.85
2018-05-03T12:17:04.618Z,22.72
2018-05-03T12:18:04.627Z,22.81
2018-05-03T12:19:04.631Z,22.99
2018-05-03T12:20:04.637Z,23.21
2018-05-03T12:21:04.641Z,23.39
2018-05-03T12:22:04.655Z,23.54
2018-05-03T12:23:04.655Z,23.51
2018-05-03T12:24:04.657Z,23.28
2018-05-03T12:25:04.669Z,23.05
2018-05-03T12:26:04.676Z,23.08
2018-05-03T12:27:04.677Z,22.72
2018-05-03T12:28:04.685Z,23.06
2018-05-03T12:29:04.704Z,22.98
2018-05-03T12:30:04.704Z,23.06
2018-05-03T12:31:04.710Z,23.36
2018-05-03T12:32:04.722Z,23.63
2018-05-03T12:33:04.718Z,23.84
2018-05-03T12:34:04.744Z,24.13
2018-05-03T12:35:04.736Z,24.23
2018-05-03T12:36:04.743Z,24.10
2018-05-03T12:37:04.750Z,24.06
2018-05-03T12:38:04.761Z,23.81
2018-05-03T12:39:04.769Z,23.56
2018-05-03T12:40:04.777Z,23.15
2018-05-03T12:41:04.781Z,22.30
2018-05-03T12:42:04.789Z,21.98
2018-05-03T12:43:04.796Z,21.73
2018-05-03T12:44:04.799Z,21.55
2018-05-03T12:45:04.810Z,21.33
2018-05-03T12:46:04.813Z,20.92
2018-05-03T12:47:04.821Z,20.66
2018-05-03T12:48:04.819Z,20.48
2018-05-03T12:49:04.832Z,20.29
2018-05-03T12:50:04.838Z,20.28
2018-05-03T12:51:04.843Z,20.06
2018-05-03T12:52:04.845Z,19.94